CheckWX is a tool to help pilots better visualize weather data.  It is not intended as a substitute for an official pre-flight weather briefing.

18:32:04 UTC

KPRB METAR
Paso Robles Municipal Airport
Paso Robles, California, USA
Current

39 mins ago

KPRB 221753Z AUTO 00000KT 10SM CLR 06/00 A3008 RMK AO2 SLP190 T00560000 10056 21033 51023 $
Observed
Feb-22 @ 17:53 UTC
Visibility
10 SM
Flight Rules
VFR
Cloud Levels
  • Clear skies
Temperature
C / 43°F
Dewpoint
C / 32°F
Humidity
66%
Altimeter
30.08" Hg
Pressure
1019 hPa
Previous

2 hours ago

KPRB 221653Z AUTO 00000KT 10SM CLR 02/M01 A3007 RMK AO2 SLP186 T00221006
Observed
Feb-22 @ 16:53 UTC
Visibility
10 SM
Flight Rules
VFR
Cloud Levels
  • Clear skies
Temperature
C / 36°F
Dewpoint
-1°C / 30°F
Humidity
81%
Altimeter
30.07" Hg
Pressure
1018.6 hPa
Previous

3 hours ago

KPRB 221553Z AUTO 04003KT 10SM CLR M01/M02 A3004 RMK AO2 SLP176 T10061022 $
Observed
Feb-22 @ 15:53 UTC
Wind
  • 040° at 3 KTS
Visibility
10 SM
Flight Rules
VFR
Cloud Levels
  • Clear skies
Temperature
-1°C / 30°F
Dewpoint
-2°C / 28°F
Humidity
93%
Altimeter
30.04" Hg
Pressure
1017.6 hPa